Pagrindinis puslapis
METAR-TAF:

METAR-TAF

Oro uostai :

Pekanbaru, Indonezija

platuma: 00-28N, ilguma: 101-27E, Aukštis: 31 m

Dabartinis oras

Ataskaita buvo paskelbta 7 valandos ir 57 minutes, ne 13:00 UTC
Vėjas 5 kt iš Rytų/Šiaurės Rytų
Temperatūra 29°C
Drėgmė 74%
Slėgis 1008 hPa
Matomumas: 8000 m
Mažai debesys ne aukštis 1700 ft

METAR: WIBB 171300Z 07005KT 8000 FEW017 29/24 Q1008

Laikas: 03:57 (20:57 UTC)


TAF: trūkstamas

Orai ataskaitas ir orų prognozės (METAR, TAF).

turimą stotys yra geltonos ir raudonos taškus žemėlapyje.

Perkelti pele per norėdami pamatyti stoties vardą.

Tada spustelėkite, norėdami matyti oro stebėjimo ir prognozės.

Norėdami pakeisti žemėlapį: spustelėkite ant žalios mygtukų su juodo kryžiaus žemyn,; žalią mygtuką su brūkšneliu, jei norite nutolinti; arba žalių rodyklių gretimoms žemėlapius.


METAR-TAF: